sensor_id;sensor_type;location;lat;lon;timestamp;temperature;humidity
11242;DHT22;5678;52.370;9.006;2023-06-04T00:00:30;7.60;99.90
11242;DHT22;5678;52.370;9.006;2023-06-04T00:02:59;7.80;99.90
11242;DHT22;5678;52.370;9.006;2023-06-04T00:05:27;7.70;99.90
11242;DHT22;5678;52.370;9.006;2023-06-04T00:07:55;7.50;99.90
11242;DHT22;5678;52.370;9.006;2023-06-04T00:10:23;7.50;99.90
11242;DHT22;5678;52.370;9.006;2023-06-04T00:12:51;7.50;99.90
11242;DHT22;5678;52.370;9.006;2023-06-04T00:15:19;7.50;99.90
11242;DHT22;5678;52.370;9.006;2023-06-04T00:17:47;7.40;99.90
11242;DHT22;5678;52.370;9.006;2023-06-04T00:20:16;7.80;99.90
11242;DHT22;5678;52.370;9.006;2023-06-04T00:22:44;7.40;99.90
11242;DHT22;5678;52.370;9.006;2023-06-04T00:25:12;7.40;99.90
11242;DHT22;5678;52.370;9.006;2023-06-04T00:27:40;7.30;99.90
11242;DHT22;5678;52.370;9.006;2023-06-04T00:30:09;7.40;99.90
11242;DHT22;5678;52.370;9.006;2023-06-04T00:32:37;7.50;99.90
11242;DHT22;5678;52.370;9.006;2023-06-04T00:35:06;7.40;99.90
11242;DHT22;5678;52.370;9.006;2023-06-04T00:37:37;7.60;99.90
11242;DHT22;5678;52.370;9.006;2023-06-04T00:40:06;7.50;99.90
11242;DHT22;5678;52.370;9.006;2023-06-04T00:42:34;7.60;99.90
11242;DHT22;5678;52.370;9.006;2023-06-04T00:45:02;8.00;99.90
11242;DHT22;5678;52.370;9.006;2023-06-04T00:47:32;7.60;99.90
11242;DHT22;5678;52.370;9.006;2023-06-04T00:50:00;7.50;99.90
11242;DHT22;5678;52.370;9.006;2023-06-04T00:52:28;7.60;99.90
11242;DHT22;5678;52.370;9.006;2023-06-04T00:54:58;7.50;99.90
11242;DHT22;5678;52.370;9.006;2023-06-04T00:57:27;7.60;99.90
11242;DHT22;5678;52.370;9.006;2023-06-04T00:59:55;7.50;99.90
11242;DHT22;5678;52.370;9.006;2023-06-04T01:02:24;7.60;99.90
11242;DHT22;5678;52.370;9.006;2023-06-04T01:04:58;7.70;99.90
11242;DHT22;5678;52.370;9.006;2023-06-04T01:07:30;7.50;99.90
11242;DHT22;5678;52.370;9.006;2023-06-04T01:09:59;7.60;99.90
11242;DHT22;5678;52.370;9.006;2023-06-04T01:12:27;7.50;99.90
11242;DHT22;5678;52.370;9.006;2023-06-04T01:14:55;7.50;99.90
11242;DHT22;5678;52.370;9.006;2023-06-04T01:17:26;7.50;99.90
11242;DHT22;5678;52.370;9.006;2023-06-04T01:20:25;7.30;99.90
11242;DHT22;5678;52.370;9.006;2023-06-04T01:23:09;7.40;99.90
11242;DHT22;5678;52.370;9.006;2023-06-04T01:25:43;7.30;99.90
11242;DHT22;5678;52.370;9.006;2023-06-04T01:28:16;7.00;99.90
11242;DHT22;5678;52.370;9.006;2023-06-04T01:30:47;7.20;99.90
11242;DHT22;5678;52.370;9.006;2023-06-04T01:33:19;7.20;99.90
11242;DHT22;5678;52.370;9.006;2023-06-04T01:35:47;7.20;99.90
11242;DHT22;5678;52.370;9.006;2023-06-04T01:38:15;7.10;99.90
11242;DHT22;5678;52.370;9.006;2023-06-04T01:40:45;7.10;99.90
11242;DHT22;5678;52.370;9.006;2023-06-04T01:43:13;7.20;99.90
11242;DHT22;5678;52.370;9.006;2023-06-04T01:45:41;7.20;99.90
11242;DHT22;5678;52.370;9.006;2023-06-04T01:48:09;7.10;99.90
11242;DHT22;5678;52.370;9.006;2023-06-04T01:50:37;7.90;99.90
11242;DHT22;5678;52.370;9.006;2023-06-04T01:53:05;7.20;99.90
11242;DHT22;5678;52.370;9.006;2023-06-04T01:55:34;7.20;99.90
11242;DHT22;5678;52.370;9.006;2023-06-04T01:58:03;7.40;99.90
11242;DHT22;5678;52.370;9.006;2023-06-04T02:00:31;7.30;99.90
11242;DHT22;5678;52.370;9.006;2023-06-04T02:02:59;7.30;99.90
11242;DHT22;5678;52.370;9.006;2023-06-04T02:05:27;7.20;99.90
11242;DHT22;5678;52.370;9.006;2023-06-04T02:07:55;7.10;99.90
11242;DHT22;5678;52.370;9.006;2023-06-04T02:10:24;7.30;99.90
11242;DHT22;5678;52.370;9.006;2023-06-04T02:12:56;7.30;99.90
11242;DHT22;5678;52.370;9.006;2023-06-04T02:15:26;7.20;99.90
11242;DHT22;5678;52.370;9.006;2023-06-04T02:17:57;7.10;99.90
11242;DHT22;5678;52.370;9.006;2023-06-04T02:20:26;7.00;99.90
11242;DHT22;5678;52.370;9.006;2023-06-04T02:22:55;6.80;99.90
11242;DHT22;5678;52.370;9.006;2023-06-04T02:25:23;6.80;99.90
11242;DHT22;5678;52.370;9.006;2023-06-04T02:27:51;7.40;99.90
11242;DHT22;5678;52.370;9.006;2023-06-04T02:30:19;7.70;99.90
11242;DHT22;5678;52.370;9.006;2023-06-04T02:32:48;7.10;99.90
11242;DHT22;5678;52.370;9.006;2023-06-04T02:35:18;6.80;99.90
11242;DHT22;5678;52.370;9.006;2023-06-04T02:37:47;6.60;99.90
11242;DHT22;5678;52.370;9.006;2023-06-04T02:40:15;6.50;99.90
11242;DHT22;5678;52.370;9.006;2023-06-04T02:42:43;6.40;99.90
11242;DHT22;5678;52.370;9.006;2023-06-04T02:45:11;6.90;99.90
11242;DHT22;5678;52.370;9.006;2023-06-04T02:47:39;6.20;99.90
11242;DHT22;5678;52.370;9.006;2023-06-04T02:50:09;6.30;99.90
11242;DHT22;5678;52.370;9.006;2023-06-04T02:52:37;6.10;99.90
11242;DHT22;5678;52.370;9.006;2023-06-04T02:55:10;6.30;99.90
11242;DHT22;5678;52.370;9.006;2023-06-04T02:57:39;6.30;99.90
11242;DHT22;5678;52.370;9.006;2023-06-04T03:00:09;5.90;99.90
11242;DHT22;5678;52.370;9.006;2023-06-04T03:02:43;5.90;99.90
11242;DHT22;5678;52.370;9.006;2023-06-04T03:05:16;6.70;99.90
11242;DHT22;5678;52.370;9.006;2023-06-04T03:07:46;6.20;99.90
11242;DHT22;5678;52.370;9.006;2023-06-04T03:10:15;6.30;99.90
11242;DHT22;5678;52.370;9.006;2023-06-04T03:12:43;5.80;99.90
11242;DHT22;5678;52.370;9.006;2023-06-04T03:15:11;5.70;99.90
11242;DHT22;5678;52.370;9.006;2023-06-04T03:17:41;6.60;99.90
11242;DHT22;5678;52.370;9.006;2023-06-04T03:20:09;5.80;99.90
11242;DHT22;5678;52.370;9.006;2023-06-04T03:22:38;5.60;99.90
11242;DHT22;5678;52.370;9.006;2023-06-04T03:25:07;5.70;99.90
11242;DHT22;5678;52.370;9.006;2023-06-04T03:27:35;5.70;99.90
11242;DHT22;5678;52.370;9.006;2023-06-04T03:30:03;5.50;99.90
11242;DHT22;5678;52.370;9.006;2023-06-04T03:32:31;5.60;99.90
11242;DHT22;5678;52.370;9.006;2023-06-04T03:35:00;6.40;99.90
11242;DHT22;5678;52.370;9.006;2023-06-04T03:37:28;5.50;99.90
11242;DHT22;5678;52.370;9.006;2023-06-04T03:39:57;5.50;99.90
11242;DHT22;5678;52.370;9.006;2023-06-04T03:42:25;5.80;99.90
11242;DHT22;5678;52.370;9.006;2023-06-04T03:44:53;5.50;99.90
11242;DHT22;5678;52.370;9.006;2023-06-04T03:47:21;5.40;99.90
11242;DHT22;5678;52.370;9.006;2023-06-04T03:49:49;5.50;99.90
11242;DHT22;5678;52.370;9.006;2023-06-04T03:52:17;6.50;99.90
11242;DHT22;5678;52.370;9.006;2023-06-04T03:54:45;5.60;99.90
11242;DHT22;5678;52.370;9.006;2023-06-04T03:57:14;6.80;99.90
11242;DHT22;5678;52.370;9.006;2023-06-04T03:59:42;5.80;99.90
11242;DHT22;5678;52.370;9.006;2023-06-04T04:02:10;5.40;99.90
11242;DHT22;5678;52.370;9.006;2023-06-04T04:04:38;5.80;99.90
11242;DHT22;5678;52.370;9.006;2023-06-04T04:07:06;6.00;99.90
11242;DHT22;5678;52.370;9.006;2023-06-04T04:09:34;6.00;99.90
11242;DHT22;5678;52.370;9.006;2023-06-04T04:12:03;6.30;99.90
11242;DHT22;5678;52.370;9.006;2023-06-04T04:14:32;6.10;99.90
11242;DHT22;5678;52.370;9.006;2023-06-04T04:17:00;6.80;99.90
11242;DHT22;5678;52.370;9.006;2023-06-04T04:19:28;6.00;99.90
11242;DHT22;5678;52.370;9.006;2023-06-04T04:21:56;6.30;99.90
11242;DHT22;5678;52.370;9.006;2023-06-04T04:24:26;7.00;99.90
11242;DHT22;5678;52.370;9.006;2023-06-04T04:26:54;6.80;99.90
11242;DHT22;5678;52.370;9.006;2023-06-04T04:29:22;7.60;99.90
11242;DHT22;5678;52.370;9.006;2023-06-04T04:31:53;7.80;99.90
11242;DHT22;5678;52.370;9.006;2023-06-04T04:34:25;8.30;99.90
11242;DHT22;5678;52.370;9.006;2023-06-04T04:36:53;8.50;99.90
11242;DHT22;5678;52.370;9.006;2023-06-04T04:39:24;8.60;99.90
11242;DHT22;5678;52.370;9.006;2023-06-04T04:41:53;8.90;99.90
11242;DHT22;5678;52.370;9.006;2023-06-04T04:44:21;9.10;99.90
11242;DHT22;5678;52.370;9.006;2023-06-04T04:46:49;10.00;99.90
11242;DHT22;5678;52.370;9.006;2023-06-04T04:49:19;9.60;99.90
11242;DHT22;5678;52.370;9.006;2023-06-04T04:51:46;9.80;99.90
11242;DHT22;5678;52.370;9.006;2023-06-04T04:54:15;10.30;99.90
11242;DHT22;5678;52.370;9.006;2023-06-04T04:56:43;10.80;99.90
11242;DHT22;5678;52.370;9.006;2023-06-04T04:59:11;11.30;99.90
11242;DHT22;5678;52.370;9.006;2023-06-04T05:01:39;11.90;99.90
11242;DHT22;5678;52.370;9.006;2023-06-04T05:04:07;12.50;99.90
11242;DHT22;5678;52.370;9.006;2023-06-04T05:06:37;13.40;99.90
11242;DHT22;5678;52.370;9.006;2023-06-04T05:09:05;13.90;99.90
11242;DHT22;5678;52.370;9.006;2023-06-04T05:11:34;14.40;99.90
11242;DHT22;5678;52.370;9.006;2023-06-04T05:14:02;15.10;99.90
11242;DHT22;5678;52.370;9.006;2023-06-04T05:16:30;15.10;99.90
11242;DHT22;5678;52.370;9.006;2023-06-04T05:18:58;15.40;99.90
11242;DHT22;5678;52.370;9.006;2023-06-04T05:21:27;15.50;99.90
11242;DHT22;5678;52.370;9.006;2023-06-04T05:23:56;16.80;99.90
11242;DHT22;5678;52.370;9.006;2023-06-04T05:26:24;16.40;99.90
11242;DHT22;5678;52.370;9.006;2023-06-04T05:28:54;17.30;99.90
11242;DHT22;5678;52.370;9.006;2023-06-04T05:31:25;16.90;99.90
11242;DHT22;5678;52.370;9.006;2023-06-04T05:33:54;17.40;99.90
11242;DHT22;5678;52.370;9.006;2023-06-04T05:36:22;17.50;99.90
11242;DHT22;5678;52.370;9.006;2023-06-04T05:38:50;18.30;99.90
11242;DHT22;5678;52.370;9.006;2023-06-04T05:41:25;18.00;99.90
11242;DHT22;5678;52.370;9.006;2023-06-04T05:43:54;18.20;99.90
11242;DHT22;5678;52.370;9.006;2023-06-04T05:46:22;18.50;99.90
11242;DHT22;5678;52.370;9.006;2023-06-04T05:48:50;18.60;99.90
11242;DHT22;5678;52.370;9.006;2023-06-04T05:51:18;18.70;99.90
11242;DHT22;5678;52.370;9.006;2023-06-04T05:53:46;19.10;99.90
11242;DHT22;5678;52.370;9.006;2023-06-04T05:56:14;19.20;99.90
11242;DHT22;5678;52.370;9.006;2023-06-04T05:58:45;19.10;99.90
11242;DHT22;5678;52.370;9.006;2023-06-04T06:01:18;19.20;99.90
11242;DHT22;5678;52.370;9.006;2023-06-04T06:03:46;19.40;99.90
11242;DHT22;5678;52.370;9.006;2023-06-04T06:06:14;19.70;99.90
11242;DHT22;5678;52.370;9.006;2023-06-04T06:08:42;19.60;99.90
11242;DHT22;5678;52.370;9.006;2023-06-04T06:11:10;20.00;99.90
11242;DHT22;5678;52.370;9.006;2023-06-04T06:13:38;19.80;99.90
11242;DHT22;5678;52.370;9.006;2023-06-04T06:16:08;19.50;99.90
11242;DHT22;5678;52.370;9.006;2023-06-04T06:18:36;19.80;99.90
11242;DHT22;5678;52.370;9.006;2023-06-04T06:21:04;20.00;99.90
11242;DHT22;5678;52.370;9.006;2023-06-04T06:23:32;20.10;99.90
11242;DHT22;5678;52.370;9.006;2023-06-04T06:26:00;20.10;99.90
11242;DHT22;5678;52.370;9.006;2023-06-04T06:28:30;20.40;99.90
11242;DHT22;5678;52.370;9.006;2023-06-04T06:30:58;20.30;99.90
11242;DHT22;5678;52.370;9.006;2023-06-04T06:33:27;20.80;99.90
11242;DHT22;5678;52.370;9.006;2023-06-04T06:35:55;20.60;99.90
11242;DHT22;5678;52.370;9.006;2023-06-04T06:38:23;20.70;99.90
11242;DHT22;5678;52.370;9.006;2023-06-04T06:40:51;20.40;99.90
11242;DHT22;5678;52.370;9.006;2023-06-04T06:43:19;20.60;99.90
11242;DHT22;5678;52.370;9.006;2023-06-04T06:45:47;20.70;99.90
11242;DHT22;5678;52.370;9.006;2023-06-04T06:48:15;21.30;99.90
11242;DHT22;5678;52.370;9.006;2023-06-04T06:50:44;21.20;99.90
11242;DHT22;5678;52.370;9.006;2023-06-04T06:53:12;21.30;99.90
11242;DHT22;5678;52.370;9.006;2023-06-04T06:55:40;21.50;99.90
11242;DHT22;5678;52.370;9.006;2023-06-04T06:58:07;21.50;99.90
11242;DHT22;5678;52.370;9.006;2023-06-04T07:00:35;21.70;99.90
11242;DHT22;5678;52.370;9.006;2023-06-04T07:03:03;22.20;99.90
11242;DHT22;5678;52.370;9.006;2023-06-04T07:05:32;22.30;99.90
11242;DHT22;5678;52.370;9.006;2023-06-04T07:08:01;22.10;99.90
11242;DHT22;5678;52.370;9.006;2023-06-04T07:10:29;21.70;99.90
11242;DHT22;5678;52.370;9.006;2023-06-04T07:12:57;21.90;99.90
11242;DHT22;5678;52.370;9.006;2023-06-04T07:15:25;21.90;99.90
11242;DHT22;5678;52.370;9.006;2023-06-04T07:17:53;22.20;99.90
11242;DHT22;5678;52.370;9.006;2023-06-04T07:20:21;22.30;99.90
11242;DHT22;5678;52.370;9.006;2023-06-04T07:22:49;22.40;99.90
11242;DHT22;5678;52.370;9.006;2023-06-04T07:25:20;22.40;99.90
11242;DHT22;5678;52.370;9.006;2023-06-04T07:27:50;22.40;99.90
11242;DHT22;5678;52.370;9.006;2023-06-04T07:30:18;22.20;99.90
11242;DHT22;5678;52.370;9.006;2023-06-04T07:32:47;22.80;99.90
11242;DHT22;5678;52.370;9.006;2023-06-04T07:35:15;22.10;99.90
11242;DHT22;5678;52.370;9.006;2023-06-04T07:37:43;22.20;99.90
11242;DHT22;5678;52.370;9.006;2023-06-04T07:40:14;22.50;99.90
11242;DHT22;5678;52.370;9.006;2023-06-04T07:42:45;22.80;99.90
11242;DHT22;5678;52.370;9.006;2023-06-04T07:45:13;22.90;99.90
11242;DHT22;5678;52.370;9.006;2023-06-04T07:47:42;23.30;99.90
11242;DHT22;5678;52.370;9.006;2023-06-04T07:50:10;23.50;99.90
11242;DHT22;5678;52.370;9.006;2023-06-04T07:52:38;23.50;99.90
11242;DHT22;5678;52.370;9.006;2023-06-04T07:55:07;23.50;99.90
11242;DHT22;5678;52.370;9.006;2023-06-04T07:57:36;23.70;99.90
11242;DHT22;5678;52.370;9.006;2023-06-04T08:00:07;23.50;99.90
11242;DHT22;5678;52.370;9.006;2023-06-04T08:02:35;23.30;99.90
11242;DHT22;5678;52.370;9.006;2023-06-04T08:05:04;23.00;99.50
11242;DHT22;5678;52.370;9.006;2023-06-04T08:07:32;23.10;99.90
11242;DHT22;5678;52.370;9.006;2023-06-04T08:10:00;23.50;99.90
11242;DHT22;5678;52.370;9.006;2023-06-04T08:12:28;23.60;99.90
11242;DHT22;5678;52.370;9.006;2023-06-04T08:14:56;23.70;99.90
11242;DHT22;5678;52.370;9.006;2023-06-04T08:17:26;23.80;99.90
11242;DHT22;5678;52.370;9.006;2023-06-04T08:19:54;23.90;99.90
11242;DHT22;5678;52.370;9.006;2023-06-04T08:22:21;23.70;99.90
11242;DHT22;5678;52.370;9.006;2023-06-04T08:24:49;24.10;99.90
11242;DHT22;5678;52.370;9.006;2023-06-04T08:27:17;24.40;99.90
11242;DHT22;5678;52.370;9.006;2023-06-04T08:29:45;24.20;99.80
11242;DHT22;5678;52.370;9.006;2023-06-04T08:32:14;24.10;99.90
11242;DHT22;5678;52.370;9.006;2023-06-04T08:34:43;24.20;99.90
11242;DHT22;5678;52.370;9.006;2023-06-04T08:37:12;24.10;99.90
11242;DHT22;5678;52.370;9.006;2023-06-04T08:39:39;24.40;99.90
11242;DHT22;5678;52.370;9.006;2023-06-04T08:42:12;24.50;99.40
11242;DHT22;5678;52.370;9.006;2023-06-04T08:44:42;24.70;97.10
11242;DHT22;5678;52.370;9.006;2023-06-04T08:47:13;24.10;96.40
11242;DHT22;5678;52.370;9.006;2023-06-04T08:49:47;24.80;94.10
11242;DHT22;5678;52.370;9.006;2023-06-04T08:52:16;25.20;94.20
11242;DHT22;5678;52.370;9.006;2023-06-04T08:54:48;25.20;92.80
11242;DHT22;5678;52.370;9.006;2023-06-04T08:57:18;25.10;93.60
11242;DHT22;5678;52.370;9.006;2023-06-04T08:59:47;25.30;88.70
11242;DHT22;5678;52.370;9.006;2023-06-04T09:02:15;24.90;91.50
11242;DHT22;5678;52.370;9.006;2023-06-04T09:04:45;25.20;84.70
11242;DHT22;5678;52.370;9.006;2023-06-04T09:07:14;24.90;84.00
11242;DHT22;5678;52.370;9.006;2023-06-04T09:09:44;24.90;90.30
11242;DHT22;5678;52.370;9.006;2023-06-04T09:12:27;25.30;86.40
11242;DHT22;5678;52.370;9.006;2023-06-04T09:14:58;25.60;88.30
11242;DHT22;5678;52.370;9.006;2023-06-04T09:17:27;25.50;74.30
11242;DHT22;5678;52.370;9.006;2023-06-04T09:19:57;25.60;60.30
11242;DHT22;5678;52.370;9.006;2023-06-04T09:22:32;25.40;46.90
11242;DHT22;5678;52.370;9.006;2023-06-04T09:25:02;25.50;47.60
11242;DHT22;5678;52.370;9.006;2023-06-04T09:27:37;25.50;38.60
11242;DHT22;5678;52.370;9.006;2023-06-04T09:30:07;25.80;41.80
11242;DHT22;5678;52.370;9.006;2023-06-04T09:32:36;25.70;29.30
11242;DHT22;5678;52.370;9.006;2023-06-04T09:35:10;25.90;27.40
11242;DHT22;5678;52.370;9.006;2023-06-04T09:37:39;26.20;31.40
11242;DHT22;5678;52.370;9.006;2023-06-04T09:40:08;26.20;59.20
11242;DHT22;5678;52.370;9.006;2023-06-04T09:42:43;26.10;60.50
11242;DHT22;5678;52.370;9.006;2023-06-04T09:45:12;26.10;84.80
11242;DHT22;5678;52.370;9.006;2023-06-04T09:47:41;26.30;90.70
11242;DHT22;5678;52.370;9.006;2023-06-04T09:50:11;26.40;99.90
11242;DHT22;5678;52.370;9.006;2023-06-04T09:52:39;26.20;99.90
11242;DHT22;5678;52.370;9.006;2023-06-04T09:55:16;25.90;99.90
11242;DHT22;5678;52.370;9.006;2023-06-04T09:57:46;26.00;99.90
11242;DHT22;5678;52.370;9.006;2023-06-04T10:00:17;25.80;99.90
11242;DHT22;5678;52.370;9.006;2023-06-04T10:02:46;25.80;99.90
11242;DHT22;5678;52.370;9.006;2023-06-04T10:05:17;25.80;99.90
11242;DHT22;5678;52.370;9.006;2023-06-04T10:07:51;25.90;99.90
11242;DHT22;5678;52.370;9.006;2023-06-04T10:10:25;26.10;99.90
11242;DHT22;5678;52.370;9.006;2023-06-04T10:12:59;26.10;99.90
11242;DHT22;5678;52.370;9.006;2023-06-04T10:15:28;26.00;99.90
11242;DHT22;5678;52.370;9.006;2023-06-04T10:17:59;25.80;99.90
11242;DHT22;5678;52.370;9.006;2023-06-04T10:20:28;25.80;99.90
11242;DHT22;5678;52.370;9.006;2023-06-04T10:22:58;25.80;99.90
11242;DHT22;5678;52.370;9.006;2023-06-04T10:25:26;25.80;99.90
11242;DHT22;5678;52.370;9.006;2023-06-04T10:27:55;26.00;99.90
11242;DHT22;5678;52.370;9.006;2023-06-04T10:30:24;26.10;99.90
11242;DHT22;5678;52.370;9.006;2023-06-04T10:32:53;26.00;99.90
11242;DHT22;5678;52.370;9.006;2023-06-04T10:35:30;25.80;99.90
11242;DHT22;5678;52.370;9.006;2023-06-04T10:38:09;25.90;99.90
11242;DHT22;5678;52.370;9.006;2023-06-04T10:40:37;26.10;99.90
11242;DHT22;5678;52.370;9.006;2023-06-04T10:43:06;26.00;99.90
11242;DHT22;5678;52.370;9.006;2023-06-04T10:45:36;25.80;99.90
11242;DHT22;5678;52.370;9.006;2023-06-04T10:48:05;25.60;99.90
11242;DHT22;5678;52.370;9.006;2023-06-04T10:50:47;25.80;99.90
11242;DHT22;5678;52.370;9.006;2023-06-04T10:53:16;25.90;99.90
11242;DHT22;5678;52.370;9.006;2023-06-04T10:55:44;26.20;99.90
11242;DHT22;5678;52.370;9.006;2023-06-04T10:58:13;26.20;99.90
11242;DHT22;5678;52.370;9.006;2023-06-04T11:00:43;26.00;99.90
11242;DHT22;5678;52.370;9.006;2023-06-04T11:03:13;25.90;99.90
11242;DHT22;5678;52.370;9.006;2023-06-04T11:05:43;25.90;99.90
11242;DHT22;5678;52.370;9.006;2023-06-04T11:08:12;26.00;99.90
11242;DHT22;5678;52.370;9.006;2023-06-04T11:10:42;26.20;99.90
11242;DHT22;5678;52.370;9.006;2023-06-04T11:13:11;26.20;99.90
11242;DHT22;5678;52.370;9.006;2023-06-04T11:15:40;26.30;99.90
11242;DHT22;5678;52.370;9.006;2023-06-04T11:18:13;26.00;99.90
11242;DHT22;5678;52.370;9.006;2023-06-04T11:20:44;26.00;99.90
11242;DHT22;5678;52.370;9.006;2023-06-04T11:23:12;25.80;99.90
11242;DHT22;5678;52.370;9.006;2023-06-04T11:25:41;25.60;99.90
11242;DHT22;5678;52.370;9.006;2023-06-04T11:28:15;25.60;99.90
11242;DHT22;5678;52.370;9.006;2023-06-04T11:30:44;25.70;99.90
11242;DHT22;5678;52.370;9.006;2023-06-04T11:33:23;26.00;99.90
11242;DHT22;5678;52.370;9.006;2023-06-04T11:35:52;25.80;99.90
11242;DHT22;5678;52.370;9.006;2023-06-04T11:38:20;25.80;99.90
11242;DHT22;5678;52.370;9.006;2023-06-04T11:40:55;25.80;99.90
11242;DHT22;5678;52.370;9.006;2023-06-04T11:43:23;26.10;99.90
11242;DHT22;5678;52.370;9.006;2023-06-04T11:45:58;26.50;99.90
11242;DHT22;5678;52.370;9.006;2023-06-04T11:48:26;26.50;99.90
11242;DHT22;5678;52.370;9.006;2023-06-04T11:50:56;26.50;99.90
11242;DHT22;5678;52.370;9.006;2023-06-04T11:53:24;26.60;99.90
11242;DHT22;5678;52.370;9.006;2023-06-04T11:55:52;26.30;99.90
11242;DHT22;5678;52.370;9.006;2023-06-04T11:58:20;26.20;99.90
11242;DHT22;5678;52.370;9.006;2023-06-04T12:00:48;26.30;99.90
11242;DHT22;5678;52.370;9.006;2023-06-04T12:03:17;26.60;99.90
11242;DHT22;5678;52.370;9.006;2023-06-04T12:05:45;26.80;99.90
11242;DHT22;5678;52.370;9.006;2023-06-04T12:08:14;27.00;99.90
11242;DHT22;5678;52.370;9.006;2023-06-04T12:10:43;27.20;99.90
11242;DHT22;5678;52.370;9.006;2023-06-04T12:13:11;27.50;99.90
11242;DHT22;5678;52.370;9.006;2023-06-04T12:15:39;27.30;99.90
11242;DHT22;5678;52.370;9.006;2023-06-04T12:18:07;27.30;99.90
11242;DHT22;5678;52.370;9.006;2023-06-04T12:20:37;27.40;99.90
11242;DHT22;5678;52.370;9.006;2023-06-04T12:23:06;27.40;99.90
11242;DHT22;5678;52.370;9.006;2023-06-04T12:25:35;27.50;99.90
11242;DHT22;5678;52.370;9.006;2023-06-04T12:28:05;27.70;99.90
11242;DHT22;5678;52.370;9.006;2023-06-04T12:30:37;27.90;99.90
11242;DHT22;5678;52.370;9.006;2023-06-04T12:33:05;27.90;99.90
11242;DHT22;5678;52.370;9.006;2023-06-04T12:35:33;27.70;99.90
11242;DHT22;5678;52.370;9.006;2023-06-04T12:38:03;27.90;99.90
11242;DHT22;5678;52.370;9.006;2023-06-04T12:40:32;27.50;99.90
11242;DHT22;5678;52.370;9.006;2023-06-04T12:43:01;27.20;99.90
11242;DHT22;5678;52.370;9.006;2023-06-04T12:45:29;27.30;99.90
11242;DHT22;5678;52.370;9.006;2023-06-04T12:47:57;27.10;99.90
11242;DHT22;5678;52.370;9.006;2023-06-04T12:50:25;26.80;99.90
11242;DHT22;5678;52.370;9.006;2023-06-04T12:52:53;26.50;99.90
11242;DHT22;5678;52.370;9.006;2023-06-04T12:55:21;26.30;99.90
11242;DHT22;5678;52.370;9.006;2023-06-04T12:57:51;26.10;99.90
11242;DHT22;5678;52.370;9.006;2023-06-04T13:00:20;26.10;99.90
11242;DHT22;5678;52.370;9.006;2023-06-04T13:02:48;26.40;99.90
11242;DHT22;5678;52.370;9.006;2023-06-04T13:05:18;26.30;99.90
11242;DHT22;5678;52.370;9.006;2023-06-04T13:07:46;26.20;99.90
11242;DHT22;5678;52.370;9.006;2023-06-04T13:10:14;26.20;99.90
11242;DHT22;5678;52.370;9.006;2023-06-04T13:12:41;26.30;99.90
11242;DHT22;5678;52.370;9.006;2023-06-04T13:15:10;26.00;99.90
11242;DHT22;5678;52.370;9.006;2023-06-04T13:17:39;26.10;92.30
11242;DHT22;5678;52.370;9.006;2023-06-04T13:20:08;26.20;64.70
11242;DHT22;5678;52.370;9.006;2023-06-04T13:22:36;26.40;46.00
11242;DHT22;5678;52.370;9.006;2023-06-04T13:25:05;26.80;29.30
11242;DHT22;5678;52.370;9.006;2023-06-04T13:27:33;27.10;22.30
11242;DHT22;5678;52.370;9.006;2023-06-04T13:30:01;27.20;18.80
11242;DHT22;5678;52.370;9.006;2023-06-04T13:32:29;27.20;14.60
11242;DHT22;5678;52.370;9.006;2023-06-04T13:34:58;27.20;14.30
11242;DHT22;5678;52.370;9.006;2023-06-04T13:37:26;27.10;10.90
11242;DHT22;5678;52.370;9.006;2023-06-04T13:39:54;27.20;13.40
11242;DHT22;5678;52.370;9.006;2023-06-04T13:42:22;27.30;8.90
11242;DHT22;5678;52.370;9.006;2023-06-04T13:44:50;27.30;6.40
11242;DHT22;5678;52.370;9.006;2023-06-04T13:47:18;26.80;4.80
11242;DHT22;5678;52.370;9.006;2023-06-04T13:49:47;26.70;8.70
11242;DHT22;5678;52.370;9.006;2023-06-04T13:52:16;26.40;5.00
11242;DHT22;5678;52.370;9.006;2023-06-04T13:54:44;26.20;5.90
11242;DHT22;5678;52.370;9.006;2023-06-04T13:57:12;26.10;6.60
11242;DHT22;5678;52.370;9.006;2023-06-04T13:59:40;26.00;2.90
11242;DHT22;5678;52.370;9.006;2023-06-04T14:02:08;25.90;3.90
11242;DHT22;5678;52.370;9.006;2023-06-04T14:04:36;25.60;5.80
11242;DHT22;5678;52.370;9.006;2023-06-04T14:07:04;25.50;3.00
11242;DHT22;5678;52.370;9.006;2023-06-04T14:09:34;25.50;7.20
11242;DHT22;5678;52.370;9.006;2023-06-04T14:12:03;25.60;8.80
11242;DHT22;5678;52.370;9.006;2023-06-04T14:14:31;25.90;7.80
11242;DHT22;5678;52.370;9.006;2023-06-04T14:17:03;26.10;7.90
11242;DHT22;5678;52.370;9.006;2023-06-04T14:19:32;26.00;7.10
11242;DHT22;5678;52.370;9.006;2023-06-04T14:22:00;26.00;11.90
11242;DHT22;5678;52.370;9.006;2023-06-04T14:24:28;26.20;7.20
11242;DHT22;5678;52.370;9.006;2023-06-04T14:26:59;26.20;7.50
11242;DHT22;5678;52.370;9.006;2023-06-04T14:29:27;25.70;10.90
11242;DHT22;5678;52.370;9.006;2023-06-04T14:31:55;25.60;2.50
11242;DHT22;5678;52.370;9.006;2023-06-04T14:34:23;25.40;9.10
11242;DHT22;5678;52.370;9.006;2023-06-04T14:36:51;25.50;9.10
11242;DHT22;5678;52.370;9.006;2023-06-04T14:39:19;25.70;10.80
11242;DHT22;5678;52.370;9.006;2023-06-04T14:41:48;25.80;12.30
11242;DHT22;5678;52.370;9.006;2023-06-04T14:44:18;26.00;10.60
11242;DHT22;5678;52.370;9.006;2023-06-04T14:46:48;26.30;13.80
11242;DHT22;5678;52.370;9.006;2023-06-04T14:49:16;26.30;31.00
11242;DHT22;5678;52.370;9.006;2023-06-04T14:51:45;26.60;9.60
11242;DHT22;5678;52.370;9.006;2023-06-04T14:54:13;26.60;9.30
11242;DHT22;5678;52.370;9.006;2023-06-04T14:56:41;26.60;9.10
11242;DHT22;5678;52.370;9.006;2023-06-04T14:59:09;26.80;9.90
11242;DHT22;5678;52.370;9.006;2023-06-04T15:01:40;26.80;9.90
11242;DHT22;5678;52.370;9.006;2023-06-04T15:04:09;26.80;4.80
11242;DHT22;5678;52.370;9.006;2023-06-04T15:06:37;26.60;7.70
11242;DHT22;5678;52.370;9.006;2023-06-04T15:09:05;26.40;4.60
11242;DHT22;5678;52.370;9.006;2023-06-04T15:11:33;26.40;8.70
11242;DHT22;5678;52.370;9.006;2023-06-04T15:14:01;26.50;7.70
11242;DHT22;5678;52.370;9.006;2023-06-04T15:16:29;26.30;6.90
11242;DHT22;5678;52.370;9.006;2023-06-04T15:18:58;25.90;4.40
11242;DHT22;5678;52.370;9.006;2023-06-04T15:21:26;25.80;8.70
11242;DHT22;5678;52.370;9.006;2023-06-04T15:23:54;25.80;10.30
11242;DHT22;5678;52.370;9.006;2023-06-04T15:26:22;25.70;4.70
11242;DHT22;5678;52.370;9.006;2023-06-04T15:28:51;25.80;10.70
11242;DHT22;5678;52.370;9.006;2023-06-04T15:31:19;25.80;13.40
11242;DHT22;5678;52.370;9.006;2023-06-04T15:33:47;25.80;7.40
11242;DHT22;5678;52.370;9.006;2023-06-04T15:36:16;25.80;11.70
11242;DHT22;5678;52.370;9.006;2023-06-04T15:38:47;25.80;8.90
11242;DHT22;5678;52.370;9.006;2023-06-04T15:41:15;25.80;11.50
11242;DHT22;5678;52.370;9.006;2023-06-04T15:43:43;25.90;10.30
11242;DHT22;5678;52.370;9.006;2023-06-04T15:46:11;26.00;11.30
11242;DHT22;5678;52.370;9.006;2023-06-04T15:48:39;26.00;10.60
11242;DHT22;5678;52.370;9.006;2023-06-04T15:51:07;26.00;17.70
11242;DHT22;5678;52.370;9.006;2023-06-04T15:53:36;25.90;14.40
11242;DHT22;5678;52.370;9.006;2023-06-04T15:56:04;25.80;14.50
11242;DHT22;5678;52.370;9.006;2023-06-04T15:58:32;25.50;13.10
11242;DHT22;5678;52.370;9.006;2023-06-04T16:01:00;25.20;14.00
11242;DHT22;5678;52.370;9.006;2023-06-04T16:03:28;25.00;11.20